sensor_id;sensor_type;location;lat;lon;timestamp;P1;durP1;ratioP1;P2;durP2;ratioP2
2934;SDS011;2462;51.456;7.248;2022-11-18T00:00:18;4.22;;;1.60;;
2934;SDS011;2462;51.456;7.248;2022-11-18T00:02:43;4.10;;;1.60;;
2934;SDS011;2462;51.456;7.248;2022-11-18T00:05:09;3.10;;;1.87;;
2934;SDS011;2462;51.456;7.248;2022-11-18T00:07:34;4.77;;;2.03;;
2934;SDS011;2462;51.456;7.248;2022-11-18T00:10:00;5.33;;;1.93;;
2934;SDS011;2462;51.456;7.248;2022-11-18T00:12:25;4.13;;;1.90;;
2934;SDS011;2462;51.456;7.248;2022-11-18T00:15:10;4.50;;;2.00;;
2934;SDS011;2462;51.456;7.248;2022-11-18T00:17:35;7.50;;;2.20;;
2934;SDS011;2462;51.456;7.248;2022-11-18T00:20:01;3.60;;;2.07;;
2934;SDS011;2462;51.456;7.248;2022-11-18T00:22:26;3.47;;;2.10;;
2934;SDS011;2462;51.456;7.248;2022-11-18T00:24:52;4.53;;;2.15;;
2934;SDS011;2462;51.456;7.248;2022-11-18T00:27:17;4.63;;;1.83;;
2934;SDS011;2462;51.456;7.248;2022-11-18T00:29:43;5.53;;;2.00;;
2934;SDS011;2462;51.456;7.248;2022-11-18T00:32:08;3.77;;;2.20;;
2934;SDS011;2462;51.456;7.248;2022-11-18T00:34:34;5.07;;;2.20;;
2934;SDS011;2462;51.456;7.248;2022-11-18T00:36:59;3.30;;;1.97;;
2934;SDS011;2462;51.456;7.248;2022-11-18T00:39:25;5.30;;;2.03;;
2934;SDS011;2462;51.456;7.248;2022-11-18T00:41:50;4.90;;;1.90;;
2934;SDS011;2462;51.456;7.248;2022-11-18T00:44:34;3.90;;;2.05;;
2934;SDS011;2462;51.456;7.248;2022-11-18T00:47:00;3.10;;;2.00;;
2934;SDS011;2462;51.456;7.248;2022-11-18T00:49:26;5.40;;;2.10;;
2934;SDS011;2462;51.456;7.248;2022-11-18T00:51:52;5.93;;;2.60;;
2934;SDS011;2462;51.456;7.248;2022-11-18T00:54:17;5.10;;;1.88;;
2934;SDS011;2462;51.456;7.248;2022-11-18T00:56:43;5.10;;;2.30;;
2934;SDS011;2462;51.456;7.248;2022-11-18T00:59:08;4.20;;;1.90;;
2934;SDS011;2462;51.456;7.248;2022-11-18T01:01:34;4.10;;;2.20;;
2934;SDS011;2462;51.456;7.248;2022-11-18T01:03:59;7.63;;;2.20;;
2934;SDS011;2462;51.456;7.248;2022-11-18T01:06:25;4.82;;;2.33;;
2934;SDS011;2462;51.456;7.248;2022-11-18T01:08:51;3.97;;;2.00;;
2934;SDS011;2462;51.456;7.248;2022-11-18T01:11:16;4.93;;;2.00;;
2934;SDS011;2462;51.456;7.248;2022-11-18T01:14:01;3.22;;;2.00;;
2934;SDS011;2462;51.456;7.248;2022-11-18T01:16:27;4.30;;;2.40;;
2934;SDS011;2462;51.456;7.248;2022-11-18T01:18:53;4.72;;;1.90;;
2934;SDS011;2462;51.456;7.248;2022-11-18T01:21:19;5.17;;;1.90;;
2934;SDS011;2462;51.456;7.248;2022-11-18T01:23:44;6.10;;;2.00;;
2934;SDS011;2462;51.456;7.248;2022-11-18T01:26:11;7.37;;;2.10;;
2934;SDS011;2462;51.456;7.248;2022-11-18T01:28:38;4.37;;;2.30;;
2934;SDS011;2462;51.456;7.248;2022-11-18T01:31:04;8.25;;;2.33;;
2934;SDS011;2462;51.456;7.248;2022-11-18T01:33:31;4.85;;;2.10;;
2934;SDS011;2462;51.456;7.248;2022-11-18T01:35:57;4.97;;;2.23;;
2934;SDS011;2462;51.456;7.248;2022-11-18T01:38:22;5.10;;;2.20;;
2934;SDS011;2462;51.456;7.248;2022-11-18T01:40:48;4.10;;;2.40;;
2934;SDS011;2462;51.456;7.248;2022-11-18T01:43:14;4.20;;;2.20;;
2934;SDS011;2462;51.456;7.248;2022-11-18T01:45:42;6.17;;;2.20;;
2934;SDS011;2462;51.456;7.248;2022-11-18T01:48:14;4.97;;;2.17;;
2934;SDS011;2462;51.456;7.248;2022-11-18T01:51:03;5.63;;;2.17;;
2934;SDS011;2462;51.456;7.248;2022-11-18T01:53:36;6.18;;;2.20;;
2934;SDS011;2462;51.456;7.248;2022-11-18T01:56:07;5.27;;;2.10;;
2934;SDS011;2462;51.456;7.248;2022-11-18T01:58:40;5.68;;;2.10;;
2934;SDS011;2462;51.456;7.248;2022-11-18T02:01:26;5.03;;;2.40;;
2934;SDS011;2462;51.456;7.248;2022-11-18T02:03:52;3.70;;;2.10;;
2934;SDS011;2462;51.456;7.248;2022-11-18T02:06:18;5.43;;;2.20;;
2934;SDS011;2462;51.456;7.248;2022-11-18T02:08:44;3.42;;;1.80;;
2934;SDS011;2462;51.456;7.248;2022-11-18T02:11:12;4.18;;;1.90;;
2934;SDS011;2462;51.456;7.248;2022-11-18T02:13:58;3.40;;;1.90;;
2934;SDS011;2462;51.456;7.248;2022-11-18T02:16:31;3.35;;;1.80;;
2934;SDS011;2462;51.456;7.248;2022-11-18T02:19:03;5.00;;;1.80;;
2934;SDS011;2462;51.456;7.248;2022-11-18T02:22:03;2.38;;;1.60;;
2934;SDS011;2462;51.456;7.248;2022-11-18T02:25:01;4.80;;;1.80;;
2934;SDS011;2462;51.456;7.248;2022-11-18T02:27:38;4.43;;;1.40;;
2934;SDS011;2462;51.456;7.248;2022-11-18T02:30:28;2.67;;;1.50;;
2934;SDS011;2462;51.456;7.248;2022-11-18T02:33:03;3.55;;;1.40;;
2934;SDS011;2462;51.456;7.248;2022-11-18T02:35:41;3.13;;;1.50;;
2934;SDS011;2462;51.456;7.248;2022-11-18T02:38:12;4.03;;;1.80;;
2934;SDS011;2462;51.456;7.248;2022-11-18T02:40:48;2.90;;;1.60;;
2934;SDS011;2462;51.456;7.248;2022-11-18T02:43:23;3.40;;;1.63;;
2934;SDS011;2462;51.456;7.248;2022-11-18T02:45:54;4.47;;;1.90;;
2934;SDS011;2462;51.456;7.248;2022-11-18T02:48:24;4.22;;;1.30;;
2934;SDS011;2462;51.456;7.248;2022-11-18T02:50:52;3.30;;;1.40;;
2934;SDS011;2462;51.456;7.248;2022-11-18T02:53:19;3.13;;;1.70;;
2934;SDS011;2462;51.456;7.248;2022-11-18T02:55:46;3.40;;;1.55;;
2934;SDS011;2462;51.456;7.248;2022-11-18T02:58:13;3.07;;;1.57;;
2934;SDS011;2462;51.456;7.248;2022-11-18T03:00:42;3.22;;;1.30;;
2934;SDS011;2462;51.456;7.248;2022-11-18T03:06:01;3.05;;;1.52;;
2934;SDS011;2462;51.456;7.248;2022-11-18T03:08:38;2.10;;;1.67;;
2934;SDS011;2462;51.456;7.248;2022-11-18T03:11:13;2.80;;;1.30;;
2934;SDS011;2462;51.456;7.248;2022-11-18T03:13:47;2.60;;;1.40;;
2934;SDS011;2462;51.456;7.248;2022-11-18T03:16:17;3.58;;;1.70;;
2934;SDS011;2462;51.456;7.248;2022-11-18T03:22:04;4.15;;;1.80;;
2934;SDS011;2462;51.456;7.248;2022-11-18T03:24:37;4.32;;;1.40;;
2934;SDS011;2462;51.456;7.248;2022-11-18T03:27:13;3.88;;;1.80;;
2934;SDS011;2462;51.456;7.248;2022-11-18T03:29:46;4.35;;;1.77;;
2934;SDS011;2462;51.456;7.248;2022-11-18T03:32:18;2.38;;;1.45;;
2934;SDS011;2462;51.456;7.248;2022-11-18T03:34:48;3.10;;;1.70;;
2934;SDS011;2462;51.456;7.248;2022-11-18T03:37:17;2.67;;;1.58;;
2934;SDS011;2462;51.456;7.248;2022-11-18T03:39:50;4.75;;;1.50;;
2934;SDS011;2462;51.456;7.248;2022-11-18T03:44:48;3.75;;;1.70;;
2934;SDS011;2462;51.456;7.248;2022-11-18T03:47:17;3.40;;;1.80;;
2934;SDS011;2462;51.456;7.248;2022-11-18T03:49:51;4.28;;;1.77;;
2934;SDS011;2462;51.456;7.248;2022-11-18T03:52:23;3.20;;;2.33;;
2934;SDS011;2462;51.456;7.248;2022-11-18T03:54:53;4.03;;;1.90;;
2934;SDS011;2462;51.456;7.248;2022-11-18T03:57:26;5.82;;;1.70;;
2934;SDS011;2462;51.456;7.248;2022-11-18T04:00:15;4.28;;;2.30;;
2934;SDS011;2462;51.456;7.248;2022-11-18T04:02:43;2.95;;;1.90;;
2934;SDS011;2462;51.456;7.248;2022-11-18T04:05:10;5.32;;;1.80;;
2934;SDS011;2462;51.456;7.248;2022-11-18T04:07:39;5.53;;;2.00;;
2934;SDS011;2462;51.456;7.248;2022-11-18T04:13:27;6.22;;;2.58;;
2934;SDS011;2462;51.456;7.248;2022-11-18T04:15:58;4.60;;;2.20;;
2934;SDS011;2462;51.456;7.248;2022-11-18T04:18:24;3.72;;;1.80;;
2934;SDS011;2462;51.456;7.248;2022-11-18T04:20:50;5.57;;;2.20;;
2934;SDS011;2462;51.456;7.248;2022-11-18T04:23:15;3.90;;;1.83;;
2934;SDS011;2462;51.456;7.248;2022-11-18T04:25:41;6.03;;;2.50;;
2934;SDS011;2462;51.456;7.248;2022-11-18T04:28:07;3.83;;;1.80;;
2934;SDS011;2462;51.456;7.248;2022-11-18T04:30:32;5.27;;;1.97;;
2934;SDS011;2462;51.456;7.248;2022-11-18T04:32:58;4.53;;;2.05;;
2934;SDS011;2462;51.456;7.248;2022-11-18T04:35:24;5.65;;;2.10;;
2934;SDS011;2462;51.456;7.248;2022-11-18T04:37:49;4.35;;;1.90;;
2934;SDS011;2462;51.456;7.248;2022-11-18T04:40:15;4.00;;;1.92;;
2934;SDS011;2462;51.456;7.248;2022-11-18T04:42:41;4.72;;;2.10;;
2934;SDS011;2462;51.456;7.248;2022-11-18T04:45:07;4.05;;;1.90;;
2934;SDS011;2462;51.456;7.248;2022-11-18T04:47:33;5.38;;;2.20;;
2934;SDS011;2462;51.456;7.248;2022-11-18T04:49:58;5.05;;;2.10;;
2934;SDS011;2462;51.456;7.248;2022-11-18T04:52:24;4.57;;;2.10;;
2934;SDS011;2462;51.456;7.248;2022-11-18T04:54:49;3.97;;;2.10;;
2934;SDS011;2462;51.456;7.248;2022-11-18T04:57:15;3.80;;;2.60;;
2934;SDS011;2462;51.456;7.248;2022-11-18T04:59:40;6.03;;;2.10;;
2934;SDS011;2462;51.456;7.248;2022-11-18T05:02:06;4.85;;;2.50;;
2934;SDS011;2462;51.456;7.248;2022-11-18T05:04:33;3.90;;;2.00;;
2934;SDS011;2462;51.456;7.248;2022-11-18T05:06:59;5.57;;;2.00;;
2934;SDS011;2462;51.456;7.248;2022-11-18T05:09:26;5.47;;;2.10;;
2934;SDS011;2462;51.456;7.248;2022-11-18T05:11:52;5.90;;;2.20;;
2934;SDS011;2462;51.456;7.248;2022-11-18T05:14:37;4.68;;;1.90;;
2934;SDS011;2462;51.456;7.248;2022-11-18T05:17:03;3.22;;;1.90;;
2934;SDS011;2462;51.456;7.248;2022-11-18T05:19:31;6.35;;;2.40;;
2934;SDS011;2462;51.456;7.248;2022-11-18T05:21:56;3.30;;;2.10;;
2934;SDS011;2462;51.456;7.248;2022-11-18T05:24:22;7.15;;;2.10;;
2934;SDS011;2462;51.456;7.248;2022-11-18T05:26:48;4.10;;;2.20;;
2934;SDS011;2462;51.456;7.248;2022-11-18T05:29:16;4.85;;;2.08;;
2934;SDS011;2462;51.456;7.248;2022-11-18T05:31:43;6.07;;;2.70;;
2934;SDS011;2462;51.456;7.248;2022-11-18T05:34:08;3.40;;;2.20;;
2934;SDS011;2462;51.456;7.248;2022-11-18T05:36:37;5.40;;;2.00;;
2934;SDS011;2462;51.456;7.248;2022-11-18T05:39:03;5.05;;;2.10;;
2934;SDS011;2462;51.456;7.248;2022-11-18T05:41:29;4.50;;;2.15;;
2934;SDS011;2462;51.456;7.248;2022-11-18T05:44:13;2.50;;;1.90;;
2934;SDS011;2462;51.456;7.248;2022-11-18T05:46:39;3.42;;;2.22;;
2934;SDS011;2462;51.456;7.248;2022-11-18T05:49:05;4.65;;;2.30;;
2934;SDS011;2462;51.456;7.248;2022-11-18T05:51:31;6.55;;;2.40;;
2934;SDS011;2462;51.456;7.248;2022-11-18T05:53:57;4.20;;;2.40;;
2934;SDS011;2462;51.456;7.248;2022-11-18T05:56:39;5.50;;;2.63;;
2934;SDS011;2462;51.456;7.248;2022-11-18T05:59:06;4.70;;;2.80;;
2934;SDS011;2462;51.456;7.248;2022-11-18T06:07:14;6.63;;;2.88;;
2934;SDS011;2462;51.456;7.248;2022-11-18T06:09:42;4.88;;;2.38;;
2934;SDS011;2462;51.456;7.248;2022-11-18T06:12:12;4.30;;;2.40;;
2934;SDS011;2462;51.456;7.248;2022-11-18T06:14:41;5.03;;;2.40;;
2934;SDS011;2462;51.456;7.248;2022-11-18T06:17:21;5.72;;;2.28;;
2934;SDS011;2462;51.456;7.248;2022-11-18T06:19:51;4.10;;;2.30;;
2934;SDS011;2462;51.456;7.248;2022-11-18T06:22:17;3.40;;;2.72;;
2934;SDS011;2462;51.456;7.248;2022-11-18T06:24:43;4.22;;;2.22;;
2934;SDS011;2462;51.456;7.248;2022-11-18T06:27:09;5.22;;;2.40;;
2934;SDS011;2462;51.456;7.248;2022-11-18T06:29:35;3.70;;;2.00;;
2934;SDS011;2462;51.456;7.248;2022-11-18T06:32:01;5.13;;;2.40;;
2934;SDS011;2462;51.456;7.248;2022-11-18T06:34:26;4.88;;;2.30;;
2934;SDS011;2462;51.456;7.248;2022-11-18T06:36:52;5.20;;;2.75;;
2934;SDS011;2462;51.456;7.248;2022-11-18T06:39:18;4.68;;;2.30;;
2934;SDS011;2462;51.456;7.248;2022-11-18T06:41:43;5.90;;;2.63;;
2934;SDS011;2462;51.456;7.248;2022-11-18T06:44:12;4.57;;;2.40;;
2934;SDS011;2462;51.456;7.248;2022-11-18T06:46:38;4.13;;;2.30;;
2934;SDS011;2462;51.456;7.248;2022-11-18T06:49:22;4.60;;;2.50;;
2934;SDS011;2462;51.456;7.248;2022-11-18T06:51:49;6.63;;;2.80;;
2934;SDS011;2462;51.456;7.248;2022-11-18T06:54:15;7.30;;;2.88;;
2934;SDS011;2462;51.456;7.248;2022-11-18T06:56:41;5.47;;;2.80;;
2934;SDS011;2462;51.456;7.248;2022-11-18T06:59:06;7.35;;;3.08;;
2934;SDS011;2462;51.456;7.248;2022-11-18T07:01:36;4.18;;;2.83;;
2934;SDS011;2462;51.456;7.248;2022-11-18T07:04:02;4.90;;;2.80;;
2934;SDS011;2462;51.456;7.248;2022-11-18T07:06:29;4.80;;;2.70;;
2934;SDS011;2462;51.456;7.248;2022-11-18T07:08:58;7.00;;;2.83;;
2934;SDS011;2462;51.456;7.248;2022-11-18T07:11:25;3.90;;;2.80;;
2934;SDS011;2462;51.456;7.248;2022-11-18T07:13:51;5.72;;;3.63;;
2934;SDS011;2462;51.456;7.248;2022-11-18T07:16:18;5.30;;;2.97;;
2934;SDS011;2462;51.456;7.248;2022-11-18T07:18:45;4.68;;;3.00;;
2934;SDS011;2462;51.456;7.248;2022-11-18T07:21:12;6.20;;;3.50;;
2934;SDS011;2462;51.456;7.248;2022-11-18T07:23:40;5.75;;;3.35;;
2934;SDS011;2462;51.456;7.248;2022-11-18T07:26:06;4.65;;;3.15;;
2934;SDS011;2462;51.456;7.248;2022-11-18T07:28:31;7.70;;;3.23;;
2934;SDS011;2462;51.456;7.248;2022-11-18T07:31:05;5.07;;;3.25;;
2934;SDS011;2462;51.456;7.248;2022-11-18T07:33:35;5.80;;;3.70;;
2934;SDS011;2462;51.456;7.248;2022-11-18T07:36:02;6.65;;;3.47;;
2934;SDS011;2462;51.456;7.248;2022-11-18T07:38:33;6.35;;;3.50;;
2934;SDS011;2462;51.456;7.248;2022-11-18T07:41:02;5.00;;;3.60;;
2934;SDS011;2462;51.456;7.248;2022-11-18T07:43:30;9.70;;;3.80;;
2934;SDS011;2462;51.456;7.248;2022-11-18T07:45:56;7.38;;;3.70;;
2934;SDS011;2462;51.456;7.248;2022-11-18T07:48:21;6.67;;;3.50;;
2934;SDS011;2462;51.456;7.248;2022-11-18T07:50:47;7.50;;;3.80;;
2934;SDS011;2462;51.456;7.248;2022-11-18T07:53:12;5.43;;;3.78;;
2934;SDS011;2462;51.456;7.248;2022-11-18T07:55:38;6.10;;;3.45;;
2934;SDS011;2462;51.456;7.248;2022-11-18T07:58:03;8.50;;;3.90;;
2934;SDS011;2462;51.456;7.248;2022-11-18T08:00:29;7.33;;;3.80;;
2934;SDS011;2462;51.456;7.248;2022-11-18T08:02:54;6.80;;;3.50;;
2934;SDS011;2462;51.456;7.248;2022-11-18T08:05:20;6.80;;;3.77;;
2934;SDS011;2462;51.456;7.248;2022-11-18T08:07:45;4.47;;;3.28;;
2934;SDS011;2462;51.456;7.248;2022-11-18T08:10:11;11.32;;;3.75;;
2934;SDS011;2462;51.456;7.248;2022-11-18T08:12:36;7.10;;;3.90;;
2934;SDS011;2462;51.456;7.248;2022-11-18T08:15:02;7.60;;;3.70;;
2934;SDS011;2462;51.456;7.248;2022-11-18T08:17:28;7.97;;;4.55;;
2934;SDS011;2462;51.456;7.248;2022-11-18T08:19:53;8.13;;;3.90;;
2934;SDS011;2462;51.456;7.248;2022-11-18T08:22:19;5.40;;;3.83;;
2934;SDS011;2462;51.456;7.248;2022-11-18T08:24:45;8.20;;;4.00;;
2934;SDS011;2462;51.456;7.248;2022-11-18T08:27:11;6.95;;;3.70;;
2934;SDS011;2462;51.456;7.248;2022-11-18T08:29:37;7.45;;;3.45;;
2934;SDS011;2462;51.456;7.248;2022-11-18T08:32:04;6.63;;;3.70;;
2934;SDS011;2462;51.456;7.248;2022-11-18T08:34:30;9.45;;;3.63;;
2934;SDS011;2462;51.456;7.248;2022-11-18T08:36:55;7.10;;;3.95;;
2934;SDS011;2462;51.456;7.248;2022-11-18T08:39:21;6.32;;;3.90;;
2934;SDS011;2462;51.456;7.248;2022-11-18T08:41:46;6.30;;;3.90;;
2934;SDS011;2462;51.456;7.248;2022-11-18T08:44:13;5.50;;;3.67;;
2934;SDS011;2462;51.456;7.248;2022-11-18T08:46:40;7.68;;;3.80;;
2934;SDS011;2462;51.456;7.248;2022-11-18T08:49:06;5.93;;;3.40;;
2934;SDS011;2462;51.456;7.248;2022-11-18T08:51:32;6.23;;;3.90;;
2934;SDS011;2462;51.456;7.248;2022-11-18T08:53:58;7.47;;;3.72;;
2934;SDS011;2462;51.456;7.248;2022-11-18T08:56:24;6.87;;;3.80;;
2934;SDS011;2462;51.456;7.248;2022-11-18T08:58:50;8.40;;;4.00;;
2934;SDS011;2462;51.456;7.248;2022-11-18T09:01:16;6.17;;;4.03;;
2934;SDS011;2462;51.456;7.248;2022-11-18T09:03:42;7.27;;;4.10;;
2934;SDS011;2462;51.456;7.248;2022-11-18T09:06:08;6.77;;;3.97;;
2934;SDS011;2462;51.456;7.248;2022-11-18T09:08:39;6.70;;;4.05;;
2934;SDS011;2462;51.456;7.248;2022-11-18T09:11:23;7.65;;;4.00;;
2934;SDS011;2462;51.456;7.248;2022-11-18T09:13:51;6.60;;;4.20;;
2934;SDS011;2462;51.456;7.248;2022-11-18T09:16:25;6.83;;;3.80;;
2934;SDS011;2462;51.456;7.248;2022-11-18T09:18:52;6.03;;;4.00;;
2934;SDS011;2462;51.456;7.248;2022-11-18T09:21:18;5.70;;;3.70;;
2934;SDS011;2462;51.456;7.248;2022-11-18T09:23:44;6.83;;;3.70;;
2934;SDS011;2462;51.456;7.248;2022-11-18T09:26:11;8.10;;;4.03;;
2934;SDS011;2462;51.456;7.248;2022-11-18T09:28:38;5.10;;;4.05;;
2934;SDS011;2462;51.456;7.248;2022-11-18T09:31:07;5.93;;;4.27;;
2934;SDS011;2462;51.456;7.248;2022-11-18T09:33:35;6.55;;;4.10;;
2934;SDS011;2462;51.456;7.248;2022-11-18T09:36:01;7.30;;;4.00;;
2934;SDS011;2462;51.456;7.248;2022-11-18T09:38:29;7.78;;;4.40;;
2934;SDS011;2462;51.456;7.248;2022-11-18T09:46:47;7.00;;;4.28;;
2934;SDS011;2462;51.456;7.248;2022-11-18T09:49:36;8.88;;;4.90;;
2934;SDS011;2462;51.456;7.248;2022-11-18T09:52:08;6.95;;;4.43;;
2934;SDS011;2462;51.456;7.248;2022-11-18T09:54:44;6.32;;;4.47;;
2934;SDS011;2462;51.456;7.248;2022-11-18T09:57:12;10.23;;;4.60;;
2934;SDS011;2462;51.456;7.248;2022-11-18T09:59:38;7.23;;;4.20;;
2934;SDS011;2462;51.456;7.248;2022-11-18T10:04:51;5.87;;;4.67;;
2934;SDS011;2462;51.456;7.248;2022-11-18T10:07:33;6.15;;;4.40;;
2934;SDS011;2462;51.456;7.248;2022-11-18T10:10:09;8.73;;;4.65;;
2934;SDS011;2462;51.456;7.248;2022-11-18T10:12:43;9.80;;;4.50;;
2934;SDS011;2462;51.456;7.248;2022-11-18T10:15:17;9.45;;;4.40;;
2934;SDS011;2462;51.456;7.248;2022-11-18T10:17:50;8.15;;;4.50;;
2934;SDS011;2462;51.456;7.248;2022-11-18T10:25:48;8.77;;;4.40;;
2934;SDS011;2462;51.456;7.248;2022-11-18T10:28:21;8.80;;;4.50;;
2934;SDS011;2462;51.456;7.248;2022-11-18T10:30:48;5.40;;;4.50;;
2934;SDS011;2462;51.456;7.248;2022-11-18T10:35:43;8.65;;;4.60;;
2934;SDS011;2462;51.456;7.248;2022-11-18T10:38:19;5.67;;;4.20;;
2934;SDS011;2462;51.456;7.248;2022-11-18T10:46:30;6.07;;;3.90;;
2934;SDS011;2462;51.456;7.248;2022-11-18T10:54:31;11.38;;;4.18;;
2934;SDS011;2462;51.456;7.248;2022-11-18T10:57:12;6.55;;;4.10;;
2934;SDS011;2462;51.456;7.248;2022-11-18T11:02:39;5.83;;;3.30;;
2934;SDS011;2462;51.456;7.248;2022-11-18T11:05:21;7.05;;;3.40;;
2934;SDS011;2462;51.456;7.248;2022-11-18T11:08:00;8.77;;;3.10;;
2934;SDS011;2462;51.456;7.248;2022-11-18T11:10:28;4.70;;;3.05;;
2934;SDS011;2462;51.456;7.248;2022-11-18T11:13:00;7.10;;;3.50;;
2934;SDS011;2462;51.456;7.248;2022-11-18T11:15:34;6.47;;;3.05;;
2934;SDS011;2462;51.456;7.248;2022-11-18T11:18:13;7.50;;;3.03;;
2934;SDS011;2462;51.456;7.248;2022-11-18T11:21:09;7.57;;;3.30;;
2934;SDS011;2462;51.456;7.248;2022-11-18T11:23:38;7.10;;;3.75;;
2934;SDS011;2462;51.456;7.248;2022-11-18T11:36:50;10.70;;;4.40;;
2934;SDS011;2462;51.456;7.248;2022-11-18T11:39:33;6.80;;;3.60;;
2934;SDS011;2462;51.456;7.248;2022-11-18T11:50:33;5.22;;;3.60;;
2934;SDS011;2462;51.456;7.248;2022-11-18T11:56:16;9.07;;;3.50;;
2934;SDS011;2462;51.456;7.248;2022-11-18T12:04:04;7.63;;;3.25;;
2934;SDS011;2462;51.456;7.248;2022-11-18T12:06:51;9.23;;;3.80;;
2934;SDS011;2462;51.456;7.248;2022-11-18T12:09:20;7.70;;;3.20;;
2934;SDS011;2462;51.456;7.248;2022-11-18T12:12:01;9.45;;;4.60;;
2934;SDS011;2462;51.456;7.248;2022-11-18T12:20:37;6.10;;;3.65;;
2934;SDS011;2462;51.456;7.248;2022-11-18T12:23:08;5.40;;;3.30;;
2934;SDS011;2462;51.456;7.248;2022-11-18T12:34:01;5.50;;;3.05;;
2934;SDS011;2462;51.456;7.248;2022-11-18T12:41:56;15.10;;;9.23;;
2934;SDS011;2462;51.456;7.248;2022-11-18T12:44:45;8.93;;;6.80;;
2934;SDS011;2462;51.456;7.248;2022-11-18T12:47:12;10.48;;;4.70;;
2934;SDS011;2462;51.456;7.248;2022-11-18T12:50:10;6.80;;;4.00;;
2934;SDS011;2462;51.456;7.248;2022-11-18T12:55:10;6.27;;;2.57;;
2934;SDS011;2462;51.456;7.248;2022-11-18T12:57:39;6.43;;;2.88;;
2934;SDS011;2462;51.456;7.248;2022-11-18T13:00:26;7.32;;;2.50;;
2934;SDS011;2462;51.456;7.248;2022-11-18T13:02:55;5.90;;;2.80;;
2934;SDS011;2462;51.456;7.248;2022-11-18T13:05:26;5.80;;;2.88;;
2934;SDS011;2462;51.456;7.248;2022-11-18T13:07:57;6.72;;;2.58;;
2934;SDS011;2462;51.456;7.248;2022-11-18T13:10:54;3.67;;;2.47;;
2934;SDS011;2462;51.456;7.248;2022-11-18T13:13:42;5.88;;;2.70;;
2934;SDS011;2462;51.456;7.248;2022-11-18T13:16:22;4.43;;;2.20;;
2934;SDS011;2462;51.456;7.248;2022-11-18T13:19:07;5.13;;;3.10;;
2934;SDS011;2462;51.456;7.248;2022-11-18T13:21:32;4.18;;;2.30;;
2934;SDS011;2462;51.456;7.248;2022-11-18T13:24:17;7.20;;;2.58;;
2934;SDS011;2462;51.456;7.248;2022-11-18T13:26:45;5.70;;;2.92;;
2934;SDS011;2462;51.456;7.248;2022-11-18T13:29:31;6.07;;;2.67;;
2934;SDS011;2462;51.456;7.248;2022-11-18T13:32:22;9.63;;;2.88;;
2934;SDS011;2462;51.456;7.248;2022-11-18T13:34:51;5.10;;;2.63;;
2934;SDS011;2462;51.456;7.248;2022-11-18T13:37:31;7.03;;;3.20;;
2934;SDS011;2462;51.456;7.248;2022-11-18T13:40:00;4.70;;;2.50;;
2934;SDS011;2462;51.456;7.248;2022-11-18T13:42:29;6.63;;;2.10;;
2934;SDS011;2462;51.456;7.248;2022-11-18T13:44:59;6.07;;;2.70;;
2934;SDS011;2462;51.456;7.248;2022-11-18T13:50:13;6.72;;;2.60;;
2934;SDS011;2462;51.456;7.248;2022-11-18T13:53:44;10.32;;;2.80;;
2934;SDS011;2462;51.456;7.248;2022-11-18T14:01:04;6.20;;;2.40;;
2934;SDS011;2462;51.456;7.248;2022-11-18T14:06:23;6.32;;;2.60;;
2934;SDS011;2462;51.456;7.248;2022-11-18T14:08:49;5.10;;;2.35;;
2934;SDS011;2462;51.456;7.248;2022-11-18T14:11:32;8.85;;;2.30;;
2934;SDS011;2462;51.456;7.248;2022-11-18T14:14:00;5.35;;;2.10;;
2934;SDS011;2462;51.456;7.248;2022-11-18T14:16:29;7.93;;;2.78;;
2934;SDS011;2462;51.456;7.248;2022-11-18T14:18:57;8.60;;;2.50;;
2934;SDS011;2462;51.456;7.248;2022-11-18T14:21:33;7.90;;;2.30;;
2934;SDS011;2462;51.456;7.248;2022-11-18T14:24:00;4.50;;;2.30;;
2934;SDS011;2462;51.456;7.248;2022-11-18T14:26:31;6.90;;;2.20;;
2934;SDS011;2462;51.456;7.248;2022-11-18T14:29:00;5.82;;;2.33;;
2934;SDS011;2462;51.456;7.248;2022-11-18T14:31:37;12.23;;;2.65;;
2934;SDS011;2462;51.456;7.248;2022-11-18T14:36:50;6.70;;;2.90;;
2934;SDS011;2462;51.456;7.248;2022-11-18T14:39:24;7.38;;;2.63;;
2934;SDS011;2462;51.456;7.248;2022-11-18T14:41:55;8.38;;;2.63;;
2934;SDS011;2462;51.456;7.248;2022-11-18T14:44:22;7.32;;;2.40;;
2934;SDS011;2462;51.456;7.248;2022-11-18T14:49:20;4.90;;;2.30;;
2934;SDS011;2462;51.456;7.248;2022-11-18T14:51:47;7.18;;;2.40;;
2934;SDS011;2462;51.456;7.248;2022-11-18T14:54:13;5.68;;;2.15;;
2934;SDS011;2462;51.456;7.248;2022-11-18T14:56:40;8.98;;;2.47;;
2934;SDS011;2462;51.456;7.248;2022-11-18T14:59:09;5.68;;;2.25;;
2934;SDS011;2462;51.456;7.248;2022-11-18T15:01:39;8.60;;;2.50;;
2934;SDS011;2462;51.456;7.248;2022-11-18T15:04:06;8.20;;;2.60;;
2934;SDS011;2462;51.456;7.248;2022-11-18T15:06:32;5.18;;;2.35;;
2934;SDS011;2462;51.456;7.248;2022-11-18T15:08:57;5.03;;;2.60;;
2934;SDS011;2462;51.456;7.248;2022-11-18T15:11:23;9.77;;;2.60;;
2934;SDS011;2462;51.456;7.248;2022-11-18T15:13:49;8.30;;;2.73;;
2934;SDS011;2462;51.456;7.248;2022-11-18T15:16:18;8.43;;;3.80;;
2934;SDS011;2462;51.456;7.248;2022-11-18T15:18:49;6.97;;;3.57;;
2934;SDS011;2462;51.456;7.248;2022-11-18T15:21:17;8.52;;;3.15;;
2934;SDS011;2462;51.456;7.248;2022-11-18T15:23:43;7.75;;;3.10;;
2934;SDS011;2462;51.456;7.248;2022-11-18T15:26:17;8.73;;;2.75;;
2934;SDS011;2462;51.456;7.248;2022-11-18T15:28:47;4.50;;;2.80;;
2934;SDS011;2462;51.456;7.248;2022-11-18T15:31:14;6.55;;;3.20;;
2934;SDS011;2462;51.456;7.248;2022-11-18T15:33:40;6.38;;;3.40;;
2934;SDS011;2462;51.456;7.248;2022-11-18T15:36:11;6.27;;;2.77;;
2934;SDS011;2462;51.456;7.248;2022-11-18T15:38:37;8.43;;;2.95;;
2934;SDS011;2462;51.456;7.248;2022-11-18T15:41:03;6.73;;;4.40;;
2934;SDS011;2462;51.456;7.248;2022-11-18T15:43:29;6.27;;;3.67;;
2934;SDS011;2462;51.456;7.248;2022-11-18T15:45:55;8.77;;;3.47;;
2934;SDS011;2462;51.456;7.248;2022-11-18T15:48:22;7.90;;;3.17;;
2934;SDS011;2462;51.456;7.248;2022-11-18T15:50:47;6.25;;;3.55;;
2934;SDS011;2462;51.456;7.248;2022-11-18T15:53:13;7.63;;;3.53;;
2934;SDS011;2462;51.456;7.248;2022-11-18T15:55:38;7.73;;;3.50;;
2934;SDS011;2462;51.456;7.248;2022-11-18T15:58:04;10.37;;;3.53;;
2934;SDS011;2462;51.456;7.248;2022-11-18T16:00:29;9.23;;;3.97;;
2934;SDS011;2462;51.456;7.248;2022-11-18T16:02:55;5.93;;;3.50;;
2934;SDS011;2462;51.456;7.248;2022-11-18T16:05:21;8.75;;;3.75;;
2934;SDS011;2462;51.456;7.248;2022-11-18T16:07:46;11.30;;;3.78;;
2934;SDS011;2462;51.456;7.248;2022-11-18T16:10:12;7.37;;;3.67;;
2934;SDS011;2462;51.456;7.248;2022-11-18T16:12:56;8.85;;;4.00;;
2934;SDS011;2462;51.456;7.248;2022-11-18T16:15:21;6.30;;;3.90;;
2934;SDS011;2462;51.456;7.248;2022-11-18T16:18:05;7.40;;;3.90;;
2934;SDS011;2462;51.456;7.248;2022-11-18T16:20:31;7.80;;;3.90;;
2934;SDS011;2462;51.456;7.248;2022-11-18T16:22:56;6.87;;;3.80;;
2934;SDS011;2462;51.456;7.248;2022-11-18T16:25:22;6.78;;;3.80;;
2934;SDS011;2462;51.456;7.248;2022-11-18T16:27:48;7.97;;;3.80;;
2934;SDS011;2462;51.456;7.248;2022-11-18T16:30:14;6.73;;;3.70;;
2934;SDS011;2462;51.456;7.248;2022-11-18T16:32:59;8.35;;;4.00;;
2934;SDS011;2462;51.456;7.248;2022-11-18T16:35:25;5.40;;;3.90;;
2934;SDS011;2462;51.456;7.248;2022-11-18T16:37:51;8.55;;;4.90;;
2934;SDS011;2462;51.456;7.248;2022-11-18T16:40:17;11.27;;;4.50;;
2934;SDS011;2462;51.456;7.248;2022-11-18T16:42:42;9.70;;;5.10;;
2934;SDS011;2462;51.456;7.248;2022-11-18T16:45:08;10.37;;;5.30;;
2934;SDS011;2462;51.456;7.248;2022-11-18T16:47:34;10.27;;;5.00;;
2934;SDS011;2462;51.456;7.248;2022-11-18T16:50:01;9.60;;;4.70;;
2934;SDS011;2462;51.456;7.248;2022-11-18T16:52:26;8.43;;;4.68;;
2934;SDS011;2462;51.456;7.248;2022-11-18T16:54:52;8.00;;;4.60;;
2934;SDS011;2462;51.456;7.248;2022-11-18T16:57:18;8.52;;;5.15;;
2934;SDS011;2462;51.456;7.248;2022-11-18T16:59:43;9.98;;;5.30;;
2934;SDS011;2462;51.456;7.248;2022-11-18T17:02:10;12.13;;;5.10;;
2934;SDS011;2462;51.456;7.248;2022-11-18T17:04:37;9.23;;;5.40;;
2934;SDS011;2462;51.456;7.248;2022-11-18T17:07:03;10.30;;;6.10;;
2934;SDS011;2462;51.456;7.248;2022-11-18T17:09:29;9.75;;;6.13;;
2934;SDS011;2462;51.456;7.248;2022-11-18T17:11:55;9.60;;;5.55;;
2934;SDS011;2462;51.456;7.248;2022-11-18T17:14:22;10.87;;;5.50;;
2934;SDS011;2462;51.456;7.248;2022-11-18T17:16:48;11.40;;;5.72;;
2934;SDS011;2462;51.456;7.248;2022-11-18T17:19:16;11.43;;;5.65;;
2934;SDS011;2462;51.456;7.248;2022-11-18T17:21:43;7.85;;;5.35;;
2934;SDS011;2462;51.456;7.248;2022-11-18T17:24:10;11.57;;;5.40;;